Time;durP1;ratioP1;P1;durP2;ratioP2;P2;SDS_P1;SDS_P2;PMS_P1;PMS_P2;Temp;Humidity;BMP_temperature;BMP_pressure;BME280_temperature;BME280_humidity;BME280_pressure;Samples;Min_cycle;Max_cycle;Signal;HPM_P1;HPM_P2
2023/03/09 00:00:10;;;;;;;1.10;1.00;;;;;;;13.98;64.03;97380.84;6183816;23;20253;-82
2023/03/09 00:02:37;;;;;;;1.10;1.00;;;;;;;13.89;64.51;97398.56;6184132;23;20174;-83
2023/03/09 00:05:04;;;;;;;0.80;0.80;;;;;;;13.81;64.91;97423.16;6183749;23;20164;-83
2023/03/09 00:07:30;;;;;;;1.20;1.08;;;;;;;13.76;65.21;97414.94;6157230;23;20945;-83
2023/03/09 00:09:57;;;;;;;1.40;1.00;;;;;;;13.69;66.24;97414.81;6181526;23;20195;-81
2023/03/09 00:12:23;;;;;;;2.95;1.20;;;;;;;13.62;66.89;97437.56;6181284;23;20161;-81
2023/03/09 00:14:54;;;;;;;2.15;1.60;;;;;;;13.52;67.24;97433.50;6183252;23;20178;-83
2023/03/09 00:17:20;;;;;;;1.60;0.80;;;;;;;13.44;67.39;97418.50;6185404;23;20169;-83
2023/03/09 00:19:46;;;;;;;1.07;0.90;;;;;;;13.38;67.60;97425.28;6185919;23;20202;-83
2023/03/09 00:22:11;;;;;;;1.00;0.90;;;;;;;13.36;67.63;97434.34;6184535;23;20155;-83
2023/03/09 00:24:45;;;;;;;0.70;0.70;;;;;;;13.32;68.12;97435.69;6155549;23;20177;-82
2023/03/09 00:27:11;;;;;;;2.28;1.33;;;;;;;13.27;68.29;97459.91;6185911;23;20159;-83
2023/03/09 00:29:37;;;;;;;1.00;0.90;;;;;;;13.26;68.45;97438.00;6159703;23;20533;-84
2023/03/09 00:32:03;;;;;;;3.27;1.10;;;;;;;13.26;68.67;97435.38;6184221;23;20161;-82
2023/03/09 00:34:31;;;;;;;2.40;1.27;;;;;;;13.22;68.92;97441.94;6177014;23;20386;-83
2023/03/09 00:36:56;;;;;;;2.70;0.97;;;;;;;13.24;68.94;97439.94;6155777;23;20173;-83
2023/03/09 00:39:22;;;;;;;1.17;1.00;;;;;;;13.26;69.00;97424.00;6181536;23;20154;-83
2023/03/09 00:41:48;;;;;;;1.30;1.20;;;;;;;13.28;68.84;97427.28;6154918;23;20493;-83
2023/03/09 00:44:14;;;;;;;2.13;1.20;;;;;;;13.31;68.62;97418.22;6188643;23;20178;-83
2023/03/09 00:46:40;;;;;;;1.20;1.00;;;;;;;13.38;68.21;97435.84;6187125;23;20163;-83
2023/03/09 00:49:06;;;;;;;2.00;1.00;;;;;;;13.48;67.46;97430.38;6159334;23;20904;-82
2023/03/09 00:51:33;;;;;;;1.00;0.90;;;;;;;13.53;66.86;97435.97;6160580;23;20165;-82
2023/03/09 00:53:58;;;;;;;2.33;1.30;;;;;;;13.64;66.13;97447.97;6159053;23;20273;-83
2023/03/09 00:56:25;;;;;;;1.73;1.20;;;;;;;13.69;65.77;97430.63;6160816;23;20166;-83
2023/03/09 00:58:52;;;;;;;1.35;1.00;;;;;;;13.75;65.21;97410.66;6186699;23;20150;-83
2023/03/09 01:01:18;;;;;;;1.02;0.85;;;;;;;13.80;64.86;97418.88;6161425;23;20590;-82
2023/03/09 01:03:44;;;;;;;3.70;1.55;;;;;;;13.84;64.57;97409.63;6159924;23;20202;-81
2023/03/09 01:06:11;;;;;;;3.10;1.20;;;;;;;13.85;64.58;97406.00;6171978;23;20202;-82
2023/03/09 01:08:37;;;;;;;1.55;0.90;;;;;;;13.85;64.43;97394.59;6196323;23;20390;-81
2023/03/09 01:11:08;;;;;;;4.10;2.42;;;;;;;13.84;64.06;97409.63;6168569;23;20190;-80
2023/03/09 01:13:34;;;;;;;3.45;1.80;;;;;;;13.87;63.87;97414.56;6187201;23;20248;-80
2023/03/09 01:15:59;;;;;;;2.88;1.48;;;;;;;13.87;63.87;97413.72;6186768;23;20181;-80
2023/03/09 01:18:25;;;;;;;2.73;1.30;;;;;;;13.91;63.46;97430.88;6157153;23;20166;-79
2023/03/09 01:20:50;;;;;;;1.50;1.20;;;;;;;13.91;63.35;97415.88;6184581;23;20162;-80
2023/03/09 01:23:16;;;;;;;3.05;1.30;;;;;;;13.93;63.14;97420.94;6157212;23;20273;-80
2023/03/09 01:25:42;;;;;;;2.50;1.40;;;;;;;13.94;62.87;97431.34;6157564;23;20160;-79
2023/03/09 01:28:07;;;;;;;1.47;1.20;;;;;;;13.98;62.73;97420.44;6185904;23;20163;-79
2023/03/09 01:30:33;;;;;;;1.27;1.13;;;;;;;14.02;62.88;97427.84;6184385;23;20186;-79
2023/03/09 01:32:58;;;;;;;2.30;1.30;;;;;;;13.99;63.54;97430.84;6189047;23;20162;-80
2023/03/09 01:35:24;;;;;;;1.40;1.30;;;;;;;13.95;63.31;97424.25;6188486;23;20159;-80
2023/03/09 01:37:49;;;;;;;5.03;3.53;;;;;;;13.84;63.50;97425.44;6189330;23;20142;-79
2023/03/09 01:40:21;;;;;;;3.60;1.00;;;;;;;13.78;62.42;97433.25;6187629;23;20593;-80
2023/03/09 01:43:27;;;;;;;2.35;1.75;;;;;;;13.75;61.76;97423.03;6189257;23;20155;-80
2023/03/09 01:46:32;;;;;;;2.40;1.30;;;;;;;13.70;60.70;97431.47;6163137;23;20233;-83
2023/03/09 01:49:00;;;;;;;1.83;1.50;;;;;;;13.73;61.06;97439.84;6188667;23;20236;-83
2023/03/09 01:51:35;;;;;;;1.00;0.80;;;;;;;13.71;60.92;97422.53;6188586;23;20193;-82
2023/03/09 01:54:03;;;;;;;5.07;1.42;;;;;;;13.70;60.98;97426.19;6176071;23;20190;-82
2023/03/09 01:56:30;;;;;;;1.23;1.00;;;;;;;13.68;61.41;97428.97;6158295;23;20179;-83
2023/03/09 01:58:57;;;;;;;1.98;1.20;;;;;;;13.67;61.93;97429.97;6155782;23;20818;-81
2023/03/09 02:01:23;;;;;;;2.95;0.93;;;;;;;13.65;62.42;97428.50;6128888;23;20218;-82
2023/03/09 02:03:54;;;;;;;1.98;1.08;;;;;;;13.62;62.75;97436.75;6130616;23;20183;-82
2023/03/09 02:06:21;;;;;;;2.35;2.13;;;;;;;13.60;62.97;97438.75;6132976;23;20156;-82
2023/03/09 02:09:33;;;;;;;4.90;1.58;;;;;;;13.54;63.78;97448.16;6124414;23;20172;-78
2023/03/09 02:12:02;;;;;;;2.22;1.20;;;;;;;13.46;64.42;97464.81;6118977;23;20413;-79
2023/03/09 02:14:31;;;;;;;2.88;1.45;;;;;;;13.38;65.04;97470.09;6141817;23;20213;-82
2023/03/09 02:16:56;;;;;;;3.45;1.38;;;;;;;13.30;65.91;97485.94;6165851;23;20167;-80
2023/03/09 02:19:51;;;;;;;3.03;1.33;;;;;;;13.18;66.67;97501.25;6164231;23;20200;-84
2023/03/09 02:22:18;;;;;;;3.65;2.00;;;;;;;13.11;67.26;97518.72;6159123;23;20634;-82
2023/03/09 02:25:28;;;;;;;3.70;1.47;;;;;;;13.04;67.86;97508.03;6126405;23;20274;-83
2023/03/09 02:27:54;;;;;;;2.05;1.70;;;;;;;12.97;68.17;97529.91;6138910;23;20667;-81
2023/03/09 02:30:28;;;;;;;2.47;1.30;;;;;;;12.89;68.68;97536.00;6151107;23;20194;-84
2023/03/09 02:33:25;;;;;;;1.73;1.25;;;;;;;12.83;69.14;97531.38;6152085;23;20167;-82
2023/03/09 02:35:53;;;;;;;2.00;1.33;;;;;;;12.78;69.21;97536.31;6104477;23;20200;-81
2023/03/09 02:38:19;;;;;;;2.67;1.20;;;;;;;12.71;69.23;97536.13;6152637;23;20283;-82
2023/03/09 02:40:45;;;;;;;1.43;1.00;;;;;;;12.64;69.14;97548.31;6126528;23;20175;-81
2023/03/09 02:43:19;;;;;;;1.35;0.70;;;;;;;12.51;68.86;97547.94;6124672;23;20185;-81
2023/03/09 02:45:45;;;;;;;3.05;0.93;;;;;;;12.42;68.86;97557.59;6123006;23;20183;-81
2023/03/09 02:48:11;;;;;;;1.25;0.75;;;;;;;12.34;68.60;97560.22;6152308;23;20514;-81
2023/03/09 02:50:37;;;;;;;2.20;0.80;;;;;;;12.28;68.34;97561.66;6125789;23;20700;-81
2023/03/09 02:53:04;;;;;;;0.90;0.70;;;;;;;12.21;68.21;97557.22;6128101;23;20159;-82
2023/03/09 02:55:31;;;;;;;0.70;0.60;;;;;;;12.12;67.68;97569.50;6154495;23;20190;-81
2023/03/09 02:57:57;;;;;;;0.70;0.60;;;;;;;12.06;67.84;97576.22;6156300;23;20513;-82
2023/03/09 03:00:24;;;;;;;0.60;0.60;;;;;;;11.99;67.71;97584.88;6156427;23;20729;-82
2023/03/09 03:02:50;;;;;;;0.75;0.70;;;;;;;11.94;67.58;97604.63;6158407;23;20162;-81
2023/03/09 03:05:17;;;;;;;0.60;0.60;;;;;;;11.88;67.61;97605.25;6153385;23;20154;-82
2023/03/09 03:07:43;;;;;;;0.60;0.50;;;;;;;11.85;67.73;97609.94;6153413;23;20155;-81
2023/03/09 03:10:10;;;;;;;1.20;0.60;;;;;;;11.78;67.74;97615.00;6155609;23;20187;-81
2023/03/09 03:12:35;;;;;;;1.08;0.70;;;;;;;11.74;67.60;97627.63;6156293;23;20183;-80
2023/03/09 03:15:04;;;;;;;1.83;0.50;;;;;;;11.73;67.41;97633.88;6183288;23;20184;-80
2023/03/09 03:17:29;;;;;;;0.70;0.50;;;;;;;11.72;67.24;97647.19;6153813;23;20469;-81
2023/03/09 03:19:55;;;;;;;1.57;0.77;;;;;;;11.71;67.28;97663.94;6151112;23;20215;-81
2023/03/09 03:22:20;;;;;;;0.60;0.53;;;;;;;11.71;67.01;97664.75;6149501;23;20238;-81
2023/03/09 03:24:46;;;;;;;0.60;0.50;;;;;;;11.70;66.60;97673.63;6176141;23;20203;-81
2023/03/09 03:27:11;;;;;;;1.33;0.70;;;;;;;11.71;66.44;97672.63;6182159;23;20257;-81
2023/03/09 03:29:37;;;;;;;0.60;0.50;;;;;;;11.72;66.38;97661.16;6158583;23;20437;-81
2023/03/09 03:32:02;;;;;;;0.90;0.70;;;;;;;11.73;66.03;97677.75;6184034;23;20166;-81
2023/03/09 03:34:28;;;;;;;0.80;0.57;;;;;;;11.73;66.07;97691.72;6156896;23;20399;-81
2023/03/09 03:36:54;;;;;;;0.60;0.60;;;;;;;11.76;65.83;97697.66;6144853;23;20305;-81
2023/03/09 03:39:20;;;;;;;0.82;0.60;;;;;;;11.77;65.60;97709.84;6158382;23;20174;-81
2023/03/09 03:41:48;;;;;;;1.17;0.60;;;;;;;11.77;65.45;97710.66;6157209;23;20192;-81
2023/03/09 03:44:16;;;;;;;0.70;0.50;;;;;;;11.78;65.46;97724.66;6156199;23;20268;-81
2023/03/09 03:46:43;;;;;;;1.15;0.50;;;;;;;11.79;65.38;97729.75;6155932;23;20177;-81
2023/03/09 03:49:09;;;;;;;0.60;0.50;;;;;;;11.80;65.44;97730.56;6155011;23;20178;-82
2023/03/09 03:51:36;;;;;;;0.60;0.50;;;;;;;11.79;65.22;97736.81;6157291;23;20424;-80
2023/03/09 03:54:02;;;;;;;0.60;0.50;;;;;;;11.79;65.36;97739.44;6158226;23;20207;-81
2023/03/09 03:56:28;;;;;;;0.60;0.60;;;;;;;11.80;65.16;97754.25;6158362;23;20173;-82
2023/03/09 03:58:55;;;;;;;0.60;0.50;;;;;;;11.81;65.03;97755.91;6159260;23;20236;-82
2023/03/09 04:01:21;;;;;;;0.70;0.60;;;;;;;11.82;65.15;97762.81;6159768;23;20178;-82
2023/03/09 04:03:51;;;;;;;0.60;0.50;;;;;;;11.83;65.09;97767.13;6157421;23;20437;-82
2023/03/09 04:06:17;;;;;;;1.43;0.60;;;;;;;11.82;65.18;97762.81;6155325;23;20505;-82
2023/03/09 04:08:45;;;;;;;0.70;0.60;;;;;;;11.80;65.18;97777.91;6157921;23;20519;-82
2023/03/09 04:11:11;;;;;;;0.83;0.50;;;;;;;11.79;65.46;97774.47;6158189;23;20206;-82
2023/03/09 04:13:42;;;;;;;0.90;0.60;;;;;;;11.77;65.52;97781.66;6158631;23;20202;-83
2023/03/09 04:16:08;;;;;;;0.60;0.55;;;;;;;11.76;65.91;97792.34;6159230;23;20209;-83
2023/03/09 04:18:33;;;;;;;0.70;0.60;;;;;;;11.73;65.90;97796.13;6185395;23;20176;-81
2023/03/09 04:20:58;;;;;;;0.70;0.60;;;;;;;11.71;66.39;97801.50;6184378;23;20162;-82
2023/03/09 04:23:24;;;;;;;1.53;0.60;;;;;;;11.69;66.62;97815.78;6158592;23;20247;-82
2023/03/09 04:25:59;;;;;;;0.90;0.50;;;;;;;11.63;66.97;97811.94;6158856;23;20659;-81
2023/03/09 04:28:32;;;;;;;1.48;0.55;;;;;;;11.61;67.09;97819.19;6158026;23;20312;-82
2023/03/09 04:30:58;;;;;;;1.20;0.60;;;;;;;11.58;67.26;97818.63;6157511;23;20207;-82
2023/03/09 04:33:24;;;;;;;1.00;0.80;;;;;;;11.55;67.54;97814.50;6157850;23;20200;-82
2023/03/09 04:35:50;;;;;;;0.70;0.60;;;;;;;11.53;67.95;97829.59;6152772;23;20156;-82
2023/03/09 04:38:21;;;;;;;0.60;0.60;;;;;;;11.51;68.02;97821.03;6157014;23;20164;-82
2023/03/09 04:40:48;;;;;;;0.95;0.80;;;;;;;11.50;68.04;97829.88;6155445;23;20164;-82
2023/03/09 04:43:14;;;;;;;1.67;0.70;;;;;;;11.47;68.16;97833.63;6155453;23;20621;-82
2023/03/09 04:45:41;;;;;;;0.75;0.57;;;;;;;11.45;68.56;97848.75;6153333;23;20409;-82
2023/03/09 04:48:06;;;;;;;1.33;1.13;;;;;;;11.44;68.65;97847.06;6153967;23;20180;-82
2023/03/09 04:50:33;;;;;;;0.80;0.60;;;;;;;11.42;68.73;97848.19;6156322;23;20541;-82
2023/03/09 04:53:02;;;;;;;1.05;0.60;;;;;;;11.41;68.78;97849.16;6154734;23;20237;-82
2023/03/09 04:55:29;;;;;;;0.90;0.63;;;;;;;11.39;68.56;97857.19;6156824;23;20198;-82
2023/03/09 04:57:57;;;;;;;0.80;0.70;;;;;;;11.36;68.71;97872.44;6157995;23;20192;-82
2023/03/09 05:00:24;;;;;;;3.33;0.60;;;;;;;11.35;68.57;97876.06;6184303;23;20486;-82
2023/03/09 05:02:50;;;;;;;1.35;0.60;;;;;;;11.37;68.41;97887.22;6156968;23;20550;-82
2023/03/09 05:05:18;;;;;;;0.93;0.60;;;;;;;11.37;68.45;97890.72;6157776;23;20155;-82
2023/03/09 05:07:45;;;;;;;1.80;0.57;;;;;;;11.37;68.13;97897.75;6158175;23;20168;-82
2023/03/09 05:10:12;;;;;;;0.82;0.65;;;;;;;11.38;68.12;97909.94;6157509;23;20651;-82
2023/03/09 05:12:41;;;;;;;1.27;0.70;;;;;;;11.36;68.31;97901.34;6158039;23;20551;-82
2023/03/09 05:15:10;;;;;;;2.78;0.80;;;;;;;11.36;68.63;97904.81;6157395;23;20388;-82
2023/03/09 05:17:36;;;;;;;2.20;0.90;;;;;;;11.36;69.14;97904.81;6157144;23;20164;-82
2023/03/09 05:20:10;;;;;;;1.00;0.73;;;;;;;11.33;69.48;97906.91;6157359;23;20610;-82
2023/03/09 05:22:37;;;;;;;1.25;0.80;;;;;;;11.33;69.76;97917.41;6157126;23;20166;-82
2023/03/09 05:25:05;;;;;;;2.67;0.80;;;;;;;11.32;70.25;97921.84;6155568;23;20184;-81
2023/03/09 05:27:31;;;;;;;5.47;0.80;;;;;;;11.32;70.54;97915.78;6131172;23;20171;-81
2023/03/09 05:29:57;;;;;;;1.20;1.10;;;;;;;11.32;70.84;97924.47;6156439;23;20191;-81
2023/03/09 05:32:22;;;;;;;1.47;1.00;;;;;;;11.32;70.73;97944.69;6182594;23;20179;-81
2023/03/09 05:34:48;;;;;;;1.27;1.03;;;;;;;11.32;70.91;97949.94;6156346;23;20602;-82
2023/03/09 05:37:13;;;;;;;1.50;1.10;;;;;;;11.34;70.71;97950.59;6158179;23;20598;-81
2023/03/09 05:39:39;;;;;;;3.13;1.20;;;;;;;11.32;70.81;97955.19;6156962;23;20163;-82
2023/03/09 05:42:05;;;;;;;2.03;1.47;;;;;;;11.34;70.70;97959.34;6157134;23;20172;-82
2023/03/09 05:44:35;;;;;;;2.65;1.17;;;;;;;11.35;70.55;97961.00;6155546;23;20598;-81
2023/03/09 05:47:01;;;;;;;1.13;0.80;;;;;;;11.37;70.51;97960.81;6156743;23;20174;-81
2023/03/09 05:49:27;;;;;;;1.17;1.07;;;;;;;11.37;70.39;97963.47;6157814;23;20174;-82
2023/03/09 05:51:54;;;;;;;3.42;1.35;;;;;;;11.39;70.17;97977.28;6183539;23;20156;-81
2023/03/09 05:54:19;;;;;;;1.55;1.02;;;;;;;11.39;69.87;97982.56;6144068;23;21038;-81
2023/03/09 05:56:46;;;;;;;0.90;0.80;;;;;;;11.38;69.85;97992.25;6126300;23;20160;-81
2023/03/09 05:59:12;;;;;;;1.92;1.20;;;;;;;11.40;69.34;97990.31;6127256;23;20168;-81
2023/03/09 06:01:38;;;;;;;2.10;0.97;;;;;;;11.43;69.11;97989.19;6126529;23;20624;-81
2023/03/09 06:04:11;;;;;;;1.20;0.88;;;;;;;11.43;68.99;97990.03;6126159;23;20165;-81
2023/03/09 06:06:40;;;;;;;2.60;1.00;;;;;;;11.44;68.70;97996.09;6126457;23;20169;-81
2023/03/09 06:09:05;;;;;;;1.13;0.90;;;;;;;11.46;68.48;98002.06;6127227;23;20168;-81
2023/03/09 06:11:31;;;;;;;2.78;1.23;;;;;;;11.47;68.50;97993.19;6127074;23;20172;-81
2023/03/09 06:13:58;;;;;;;2.13;1.27;;;;;;;11.51;68.49;98002.47;6127532;23;20185;-81
2023/03/09 06:16:30;;;;;;;3.72;1.33;;;;;;;11.50;68.53;98012.16;6127571;23;20232;-81
2023/03/09 06:18:56;;;;;;;1.50;0.97;;;;;;;11.54;68.56;98007.44;6127758;23;20192;-81
2023/03/09 06:21:25;;;;;;;7.23;1.13;;;;;;;11.55;68.52;97997.72;6128369;23;20165;-83
2023/03/09 06:23:54;;;;;;;4.18;3.88;;;;;;;11.55;68.61;98013.50;6128241;23;20993;-81
2023/03/09 06:26:20;;;;;;;2.28;1.15;;;;;;;11.55;68.56;98003.81;6128994;23;20975;-82
2023/03/09 06:28:51;;;;;;;3.00;1.35;;;;;;;11.60;68.35;98006.84;6130282;23;20172;-81
2023/03/09 06:31:18;;;;;;;4.13;1.50;;;;;;;11.63;68.38;98005.72;6128713;23;20191;-81
2023/03/09 06:33:47;;;;;;;4.65;1.60;;;;;;;11.67;68.17;98020.28;6129621;23;20212;-81
2023/03/09 06:36:17;;;;;;;2.88;1.40;;;;;;;11.66;67.86;98023.84;6128705;23;20176;-81
2023/03/09 06:38:44;;;;;;;2.38;1.60;;;;;;;11.71;67.50;98025.06;6128794;23;20160;-81
2023/03/09 06:41:12;;;;;;;1.67;1.20;;;;;;;11.75;67.33;98033.53;6128966;23;20157;-81
2023/03/09 06:43:37;;;;;;;2.45;1.30;;;;;;;11.75;67.31;98033.53;6128789;23;20191;-82
2023/03/09 06:46:03;;;;;;;3.93;1.80;;;;;;;11.77;67.22;98049.16;6129087;23;20180;-81
2023/03/09 06:48:29;;;;;;;5.78;1.90;;;;;;;11.79;67.17;98047.22;6130200;23;20198;-81
2023/03/09 06:50:54;;;;;;;5.93;1.63;;;;;;;11.77;67.26;98063.13;6130473;23;20215;-81
2023/03/09 06:53:20;;;;;;;2.20;1.20;;;;;;;11.77;67.50;98076.28;6130718;23;20188;-82
2023/03/09 06:55:50;;;;;;;2.13;1.40;;;;;;;11.75;68.10;98070.34;6160118;23;20164;-81
2023/03/09 06:58:16;;;;;;;9.47;1.70;;;;;;;11.69;68.51;98069.13;6159938;23;20601;-81
2023/03/09 07:00:46;;;;;;;2.78;1.63;;;;;;;11.67;68.41;98092.09;6159954;23;20164;-81
2023/03/09 07:03:18;;;;;;;5.55;2.63;;;;;;;11.64;68.72;98084.50;6159277;23;20184;-82
2023/03/09 07:05:44;;;;;;;10.38;2.50;;;;;;;11.63;69.14;98082.00;6186551;23;20170;-81
2023/03/09 07:08:09;;;;;;;3.30;2.03;;;;;;;11.57;69.22;98086.03;6183921;23;20255;-82
2023/03/09 07:10:35;;;;;;;17.50;9.00;;;;;;;11.59;69.04;98099.88;6185102;23;20431;-81
2023/03/09 07:13:00;;;;;;;9.80;5.80;;;;;;;11.59;69.17;98118.28;6185968;23;20148;-82
2023/03/09 07:15:25;;;;;;;4.53;2.83;;;;;;;11.57;69.40;98130.72;6186684;23;20169;-82
2023/03/09 07:17:51;;;;;;;7.80;3.13;;;;;;;11.57;69.61;98125.47;6187128;23;20226;-82
2023/03/09 07:20:16;;;;;;;5.20;2.40;;;;;;;11.53;69.94;98124.13;6187821;23;20187;-82
2023/03/09 07:22:42;;;;;;;4.80;1.63;;;;;;;11.47;70.18;98124.66;6187288;23;20218;-82
2023/03/09 07:25:08;;;;;;;8.90;3.80;;;;;;;11.44;70.24;98132.81;6187897;23;20209;-82
2023/03/09 07:27:34;;;;;;;3.95;1.70;;;;;;;11.44;70.13;98127.56;6187210;23;20644;-82
2023/03/09 07:29:59;;;;;;;6.13;2.97;;;;;;;11.46;69.90;98134.34;6185989;23;20199;-82
2023/03/09 07:32:24;;;;;;;4.93;2.77;;;;;;;11.47;69.55;98138.63;6185428;23;20179;-82
2023/03/09 07:34:50;;;;;;;3.53;2.90;;;;;;;11.56;69.32;98138.75;6159194;23;20407;-83
2023/03/09 07:37:16;;;;;;;2.43;1.53;;;;;;;11.60;68.47;98150.66;6185504;23;20197;-82
2023/03/09 07:39:42;;;;;;;8.07;2.60;;;;;;;11.64;68.23;98145.00;6185405;23;20416;-81
2023/03/09 07:42:08;;;;;;;5.22;2.95;;;;;;;11.67;67.76;98151.78;6185468;23;20182;-82
2023/03/09 07:44:52;;;;;;;1.65;1.10;;;;;;;11.71;67.39;98161.84;6156817;23;20224;-81
2023/03/09 07:47:18;;;;;;;2.10;1.50;;;;;;;11.74;66.80;98161.56;6155503;23;20178;-81
2023/03/09 07:49:49;;;;;;;7.75;3.03;;;;;;;11.79;66.71;98163.78;6179745;23;20910;-82
2023/03/09 07:52:15;;;;;;;1.60;1.25;;;;;;;11.86;66.61;98172.00;6185266;23;20222;-82
2023/03/09 07:54:41;;;;;;;3.17;1.20;;;;;;;11.84;66.72;98172.09;6131856;23;20714;-83
2023/03/09 07:57:06;;;;;;;3.57;1.30;;;;;;;11.83;66.67;98180.16;6185612;23;20410;-82
2023/03/09 07:59:31;;;;;;;3.07;1.10;;;;;;;11.84;67.07;98184.41;6186153;23;20201;-83
2023/03/09 08:01:57;;;;;;;4.60;1.53;;;;;;;11.84;66.99;98187.06;6186074;23;20582;-83
2023/03/09 08:04:22;;;;;;;2.10;1.43;;;;;;;11.80;67.60;98198.81;6186301;23;20178;-83
2023/03/09 08:06:48;;;;;;;3.13;1.93;;;;;;;11.80;67.76;98196.19;6184741;23;20185;-83
2023/03/09 08:09:15;;;;;;;5.33;1.90;;;;;;;11.83;67.90;98202.00;6156183;23;20188;-82
2023/03/09 08:11:43;;;;;;;3.42;1.98;;;;;;;11.87;67.97;98202.59;6184653;23;20213;-82
2023/03/09 08:14:10;;;;;;;1.92;1.23;;;;;;;11.90;68.10;98197.88;6184003;23;20271;-83
2023/03/09 08:16:35;;;;;;;4.03;1.60;;;;;;;11.92;68.13;98219.59;6184659;23;20224;-82
2023/03/09 08:19:01;;;;;;;6.57;1.73;;;;;;;11.94;67.82;98219.47;6184153;23;20178;-83
2023/03/09 08:21:26;;;;;;;5.53;1.40;;;;;;;11.97;67.99;98228.91;6182709;23;20179;-82
2023/03/09 08:23:52;;;;;;;3.50;1.50;;;;;;;12.01;67.53;98225.81;6183897;23;20249;-82
2023/03/09 08:26:18;;;;;;;5.37;1.50;;;;;;;12.04;67.33;98233.44;6182943;23;20197;-82
2023/03/09 08:28:44;;;;;;;2.58;1.67;;;;;;;12.08;66.90;98232.19;6181914;23;20799;-82
2023/03/09 08:31:11;;;;;;;1.33;1.23;;;;;;;12.13;66.66;98239.69;6181890;23;20220;-82
2023/03/09 08:33:36;;;;;;;7.32;1.90;;;;;;;12.17;66.21;98239.22;6182852;23;20969;-81
2023/03/09 08:36:17;;;;;;;5.83;1.83;;;;;;;12.30;65.64;98246.00;6184934;23;20182;-82
2023/03/09 08:38:43;;;;;;;2.45;1.40;;;;;;;12.37;65.21;98244.50;6184718;23;20182;-82
2023/03/09 08:41:09;;;;;;;7.05;2.10;;;;;;;12.44;64.74;98247.38;6184553;23;20220;-82
2023/03/09 08:43:35;;;;;;;2.00;1.70;;;;;;;12.56;63.99;98248.88;6183684;23;20221;-82
2023/03/09 08:46:00;;;;;;;5.77;1.70;;;;;;;13.22;62.27;98239.97;6183989;23;20758;-82
2023/03/09 08:48:25;;;;;;;4.40;1.97;;;;;;;14.11;59.79;98244.44;6182665;23;20179;-82
2023/03/09 08:50:51;;;;;;;4.23;2.60;;;;;;;14.78;57.02;98242.09;6183291;23;20522;-82
2023/03/09 08:53:18;;;;;;;3.43;1.33;;;;;;;14.87;56.20;98251.72;6184257;23;20228;-82
2023/03/09 08:55:43;;;;;;;2.83;1.88;;;;;;;14.69;56.06;98245.66;6184285;23;20191;-81
2023/03/09 08:58:09;;;;;;;7.40;1.33;;;;;;;14.46;56.58;98254.09;6182294;23;20167;-82
2023/03/09 09:00:36;;;;;;;6.30;3.00;;;;;;;14.16;56.98;98258.03;6183301;23;20392;-82
2023/03/09 09:03:01;;;;;;;4.15;1.67;;;;;;;13.93;57.72;98273.50;6184084;23;20162;-82
2023/03/09 09:05:26;;;;;;;7.70;1.50;;;;;;;13.83;57.73;98278.06;6183997;23;20150;-82
2023/03/09 09:07:52;;;;;;;5.70;1.63;;;;;;;13.76;57.98;98284.91;6181449;23;20162;-83
2023/03/09 09:10:17;;;;;;;6.37;1.70;;;;;;;13.63;58.81;98288.72;6183711;23;20238;-82
2023/03/09 09:12:43;;;;;;;5.53;2.00;;;;;;;13.54;59.49;98289.63;6182878;23;20169;-82
2023/03/09 09:15:09;;;;;;;5.53;1.83;;;;;;;13.53;59.75;98302.94;6183872;23;20193;-83
2023/03/09 09:17:36;;;;;;;3.47;1.93;;;;;;;13.58;59.43;98306.81;6182086;23;20159;-82
2023/03/09 09:20:03;;;;;;;1.80;1.30;;;;;;;13.61;59.43;98313.59;6132499;23;20401;-82
2023/03/09 09:22:28;;;;;;;2.70;1.58;;;;;;;13.62;59.61;98326.66;6141900;23;20202;-82
2023/03/09 09:24:54;;;;;;;9.03;1.80;;;;;;;13.62;59.40;98320.56;6180596;23;20643;-82
2023/03/09 09:27:19;;;;;;;5.20;1.73;;;;;;;13.62;59.12;98334.56;5764088;23;10000268;-81
2023/03/09 09:29:45;;;;;;;3.87;1.50;;;;;;;13.62;58.67;98323.19;6181405;23;20190;-82
2023/03/09 09:32:11;;;;;;;5.87;1.47;;;;;;;13.60;58.18;98327.78;6180861;23;20510;-82
2023/03/09 09:34:37;;;;;;;8.10;2.47;;;;;;;13.61;58.12;98327.66;6177801;23;20159;-81
2023/03/09 09:37:05;;;;;;;5.00;2.00;;;;;;;13.64;57.63;98340.53;6175098;23;20393;-81
2023/03/09 09:39:32;;;;;;;6.85;2.25;;;;;;;13.65;57.57;98344.00;6179297;23;20779;-81
2023/03/09 09:42:24;;;;;;;7.32;2.70;;;;;;;13.62;57.55;98326.66;6180409;23;20502;-81
2023/03/09 09:44:52;;;;;;;5.68;2.72;;;;;;;13.57;57.85;98313.06;6166732;23;20254;-81
2023/03/09 09:47:23;;;;;;;3.58;1.85;;;;;;;13.54;58.29;98299.34;6178107;23;20162;-82
2023/03/09 09:49:52;;;;;;;3.92;1.90;;;;;;;13.47;58.18;98315.78;6178051;23;20182;-82
2023/03/09 09:52:50;;;;;;;4.10;2.20;;;;;;;13.53;58.19;98310.88;6154453;23;20177;-82
2023/03/09 09:55:25;;;;;;;3.00;2.10;;;;;;;13.58;58.06;98317.34;6131862;23;20194;-81
2023/03/09 09:58:08;;;;;;;10.15;2.38;;;;;;;13.69;57.54;98321.59;6182024;23;20169;-82
2023/03/09 10:00:39;;;;;;;7.82;1.98;;;;;;;13.79;56.94;98319.72;6184853;23;20162;-81
2023/03/09 10:03:26;;;;;;;5.63;2.10;;;;;;;13.87;56.74;98319.00;6184386;23;20166;-81
2023/03/09 10:06:18;;;;;;;3.20;1.70;;;;;;;13.93;56.42;98324.50;6183933;23;20139;-83
2023/03/09 10:08:48;;;;;;;6.07;3.42;;;;;;;14.01;56.33;98320.28;6183166;23;20228;-82
2023/03/09 10:11:31;;;;;;;4.63;2.53;;;;;;;14.10;56.34;98317.56;6187188;23;20190;-82
2023/03/09 10:14:07;;;;;;;8.55;2.15;;;;;;;14.17;55.50;98312.50;6186919;23;20671;-82
2023/03/09 10:16:41;;;;;;;6.40;2.00;;;;;;;14.26;55.15;98311.59;6189287;23;20162;-83
2023/03/09 10:19:16;;;;;;;3.45;1.25;;;;;;;14.44;54.30;98308.09;6188005;23;20612;-82
2023/03/09 10:21:55;;;;;;;7.00;1.38;;;;;;;14.57;54.28;98303.25;6187232;23;20154;-82
2023/03/09 10:24:38;;;;;;;4.25;1.45;;;;;;;14.66;53.74;98288.28;6185022;23;20186;-81
2023/03/09 10:27:14;;;;;;;4.93;1.67;;;;;;;14.66;53.80;98296.22;6186323;23;20245;-82
2023/03/09 10:29:48;;;;;;;2.38;1.60;;;;;;;14.65;53.88;98305.94;6186445;23;20442;-81
2023/03/09 10:32:31;;;;;;;3.80;1.25;;;;;;;14.65;53.91;98311.25;6186356;23;20309;-83
2023/03/09 10:35:04;;;;;;;5.22;1.55;;;;;;;14.68;53.69;98304.81;6184560;23;20219;-84
2023/03/09 10:37:34;;;;;;;2.88;1.75;;;;;;;14.71;53.53;98304.50;6185254;23;20165;-82
2023/03/09 10:40:14;;;;;;;2.47;1.10;;;;;;;14.76;53.26;98313.63;6186040;23;20157;-83
2023/03/09 10:42:39;;;;;;;4.95;1.70;;;;;;;14.75;53.26;98313.78;6184213;23;20155;-85
2023/03/09 10:45:16;;;;;;;7.67;2.03;;;;;;;14.76;53.26;98303.03;6184230;23;20254;-81
2023/03/09 10:47:55;;;;;;;3.63;1.95;;;;;;;14.77;53.00;98319.72;6183410;23;20162;-82
2023/03/09 10:50:25;;;;;;;4.05;1.40;;;;;;;14.74;52.82;98317.41;6184600;23;20664;-83
2023/03/09 10:52:51;;;;;;;4.30;2.15;;;;;;;14.74;52.96;98320.91;6184343;23;20316;-82
2023/03/09 10:55:25;;;;;;;5.93;2.47;;;;;;;14.80;53.18;98317.63;6157914;23;20215;-82
2023/03/09 10:58:06;;;;;;;6.97;2.53;;;;;;;14.86;52.92;98312.69;6150794;23;20245;-84
2023/03/09 11:00:31;;;;;;;4.85;1.48;;;;;;;14.96;52.68;98313.38;6155734;23;20564;-82
2023/03/09 11:03:01;;;;;;;5.80;2.40;;;;;;;15.16;52.45;98319.28;6156926;23;20187;-81
2023/03/09 11:05:30;;;;;;;4.05;1.55;;;;;;;15.34;52.29;98330.63;6157614;23;20187;-82
2023/03/09 11:08:02;;;;;;;5.68;2.10;;;;;;;15.47;51.57;98324.84;6162432;23;20171;-84
2023/03/09 11:10:34;;;;;;;3.08;1.52;;;;;;;15.47;51.01;98307.19;6162424;23;20191;-82
2023/03/09 11:13:01;;;;;;;2.70;1.55;;;;;;;15.52;50.92;98329.69;6160025;23;20163;-81
2023/03/09 11:15:34;;;;;;;3.65;1.45;;;;;;;15.68;50.91;98319.13;6158035;23;20170;-82
2023/03/09 11:18:02;;;;;;;3.60;1.17;;;;;;;15.80;50.43;98330.31;6157375;23;20163;-83
2023/03/09 11:20:29;;;;;;;2.97;1.30;;;;;;;15.77;50.53;98327.94;6155277;23;20152;-84
2023/03/09 11:22:58;;;;;;;3.55;1.00;;;;;;;15.72;50.86;98327.63;6157124;23;20190;-83
2023/03/09 11:25:41;;;;;;;1.25;1.05;;;;;;;15.66;50.92;98337.00;6155838;23;20490;-81
2023/03/09 11:28:17;;;;;;;5.07;1.30;;;;;;;15.62;51.31;98331.19;6149916;23;20163;-79
2023/03/09 11:30:46;;;;;;;4.28;1.30;;;;;;;15.67;51.06;98333.38;6149360;23;20182;-79
2023/03/09 11:33:16;;;;;;;2.97;1.52;;;;;;;15.66;51.09;98327.25;6148918;23;20183;-80
2023/03/09 11:35:43;;;;;;;1.85;1.10;;;;;;;15.65;51.04;98330.06;6148129;23;20163;-79
2023/03/09 11:38:13;;;;;;;1.35;1.00;;;;;;;15.63;50.99;98324.91;6148537;23;20255;-82
2023/03/09 11:40:40;;;;;;;1.83;1.15;;;;;;;15.60;50.76;98317.28;6148571;23;20167;-81